Terminal Aerodrome Forecast
Issued by NWS

Home | Current Version | Previous Version | Text Only | Print | Product List | Glossary On
Versions: 1 2 3 4 5 6 7 8 9 10 11 12 13 14 15 16 17 18 19 20 21
888
FTPA31 PHFO 221728
TAFHNY
TAF
PHNY 221728Z 2218/2318 03004KT P6SM SCT025
     FM221900 15006KT P6SM BKN025
     FM222200 04012G16KT P6SM SCT025 BKN035
      TEMPO 2222/2302 BKN025
     FM230700 05010KT P6SM SCT025 BKN040=

USA.gov is the U.S. government's official web portal to all federal, state and local government web resources and services.